Ansley, Nebraska
Current Conditions -  °F | °C
As of 12:53 AM on Saturday 25 Oct 2014 (Local Time) from KBBW Reporting Station
Clear Clear  
Wind Chill:   Ceiling: Unl
Heat Index:   Visibility: 10mi
Dew Point:   Wind: 0mph
Humidity: 85%   Direction: NA
Pressure: 30.07"   Gusts: NA
Location:  41.29°N, 99.38°W
Report Text: KBBW 250553Z AUTO 00000KT 10SM CLR 06/03 A3007 RMK AO2 SLP172 T00560033 10172 20056 402890056 52009
Loading
Personal Weather Stations






























Interactive Weather Map
Tropical Storm Tracking
New forecast layout! Learn more

10-Day Weather Forecast

Advertisements
Track Severe Weather on mobile